Time;durP1;ratioP1;P1;durP2;ratioP2;P2;SDS_P1;SDS_P2;PMS_P1;PMS_P2;Temp;Humidity;BMP_temperature;BMP_pressure;BME280_temperature;BME280_humidity;BME280_pressure;Samples;Min_cycle;Max_cycle;Signal;HPM_P1;HPM_P2
2021/11/19 00:00:48;;;;;;;;;51.25;38.75;;;;;9.24;66.19;102819.44;4976616;28;45510;-52
2021/11/19 00:03:15;;;;;;;;;46.50;37.50;;;;;9.23;66.36;102822.91;4982412;28;45326;-50
2021/11/19 00:05:42;;;;;;;;;48.25;36.50;;;;;9.23;66.40;102825.53;4982258;28;45210;-50
2021/11/19 00:08:08;;;;;;;;;49.50;36.00;;;;;9.24;66.24;102830.84;4980836;28;45219;-52
2021/11/19 00:10:34;;;;;;;;;42.50;32.50;;;;;9.25;66.29;102826.47;4981949;28;45310;-50
2021/11/19 00:13:00;;;;;;;;;43.50;35.50;;;;;9.24;66.41;102816.84;4979868;28;46177;-48
2021/11/19 00:15:26;;;;;;;;;32.00;28.25;;;;;9.23;66.37;102817.66;4981190;28;45493;-51
2021/11/19 00:17:51;;;;;;;;;40.75;32.50;;;;;9.23;66.26;102820.28;4977490;28;45301;-52
2021/11/19 00:20:20;;;;;;;;;40.50;32.25;;;;;9.24;66.39;102814.22;4976853;28;45284;-53
2021/11/19 00:22:47;;;;;;;;;40.25;34.00;;;;;9.23;66.15;102815.97;4981815;28;45253;-53
2021/11/19 00:25:13;;;;;;;;;38.25;33.00;;;;;9.23;66.35;102818.56;4985631;28;45496;-51
2021/11/19 00:27:38;;;;;;;;;43.75;33.75;;;;;9.24;66.06;102815.13;4982033;28;45417;-52
2021/11/19 00:30:09;;;;;;;;;44.00;33.00;;;;;9.25;66.15;102809.00;4981876;28;45251;-53
2021/11/19 00:32:35;;;;;;;;;35.25;29.75;;;;;9.24;66.36;102807.25;4981926;28;45821;-50
2021/11/19 00:35:00;;;;;;;;;36.25;32.75;;;;;9.25;66.36;102805.50;4981534;28;45244;-48
2021/11/19 00:37:26;;;;;;;;;34.00;30.25;;;;;9.27;66.33;102803.81;4981808;28;45866;-52
2021/11/19 00:39:51;;;;;;;;;36.75;33.00;;;;;9.27;66.20;102802.06;4981729;28;45218;-52
2021/11/19 00:42:17;;;;;;;;;38.75;31.25;;;;;9.27;66.20;102804.69;4981595;28;45306;-50
2021/11/19 00:44:43;;;;;;;;;40.50;33.25;;;;;9.29;66.00;102803.84;4981814;28;45414;-52
2021/11/19 00:47:09;;;;;;;;;45.75;35.00;;;;;9.31;66.36;102800.41;4981778;28;45395;-51
2021/11/19 00:49:37;;;;;;;;;39.50;33.25;;;;;9.31;66.15;102795.16;4981529;28;45333;-53
2021/11/19 00:52:04;;;;;;;;;36.75;31.50;;;;;9.28;66.23;102795.06;4980889;28;46338;-51
2021/11/19 00:54:30;;;;;;;;;41.00;31.50;;;;;9.23;66.16;102788.81;4981107;28;45270;-53
2021/11/19 00:57:00;;;;;;;;;36.75;33.00;;;;;9.32;66.18;102799.56;4981770;28;45295;-52
2021/11/19 00:59:28;;;;;;;;;36.75;33.00;;;;;9.34;66.21;102799.56;4981361;28;45480;-53
2021/11/19 01:02:00;;;;;;;;;52.75;35.00;;;;;9.34;66.28;102786.47;4981384;28;46216;-51
2021/11/19 01:04:26;;;;;;;;;41.00;33.75;;;;;9.38;66.36;102796.16;4981332;28;45382;-51
2021/11/19 01:06:52;;;;;;;;;38.75;33.50;;;;;9.38;66.31;102797.06;4981026;28;45317;-52
2021/11/19 01:09:31;;;;;;;;;37.25;31.50;;;;;9.39;66.40;102798.81;4981005;28;46209;-51
2021/11/19 01:11:58;;;;;;;;;41.25;31.50;;;;;9.38;66.27;102794.44;4981379;28;45328;-53
2021/11/19 01:14:41;;;;;;;;;39.50;31.50;;;;;9.37;66.20;102797.00;4981074;28;45325;-50
2021/11/19 01:17:11;;;;;;;;;40.75;32.00;;;;;9.38;66.27;102794.44;4981474;28;45280;-51
2021/11/19 01:19:51;;;;;;;;;33.25;28.25;;;;;9.38;66.41;102797.06;4981156;28;45623;-52
2021/11/19 01:22:21;;;;;;;;;38.25;30.75;;;;;9.38;66.12;102788.28;4980878;28;45392;-49
2021/11/19 01:24:47;;;;;;;;;43.75;34.25;;;;;9.37;66.24;102784.81;4981017;28;45339;-51
2021/11/19 01:27:13;;;;;;;;;35.50;28.50;;;;;9.39;66.34;102787.44;4981006;28;45365;-52
2021/11/19 01:29:39;;;;;;;;;39.00;35.50;;;;;9.38;66.42;102783.94;4981211;28;45191;-50
2021/11/19 01:32:12;;;;;;;;;34.25;32.00;;;;;9.38;66.52;102788.28;4980787;28;46097;-51
2021/11/19 01:34:39;;;;;;;;;33.50;28.75;;;;;9.38;66.46;102788.28;4980966;28;45384;-51
2021/11/19 01:37:06;;;;;;;;;38.25;32.50;;;;;9.39;66.20;102790.06;4980690;28;45317;-51
2021/11/19 01:39:34;;;;;;;;;41.75;31.25;;;;;9.37;66.25;102782.19;4980739;28;45218;-52
2021/11/19 01:42:01;;;;;;;;;35.75;31.50;;;;;9.35;66.35;102783.00;4968051;28;46003;-51
2021/11/19 01:44:31;;;;;;;;;39.75;31.75;;;;;9.36;66.27;102784.78;4980653;28;45259;-52
2021/11/19 01:46:58;;;;;;;;;36.50;30.50;;;;;9.35;66.54;102769.88;4981019;28;45244;-50
2021/11/19 01:49:25;;;;;;;;;36.00;30.25;;;;;9.34;66.25;102768.09;4980626;28;45290;-51
2021/11/19 01:52:14;;;;;;;;;29.75;27.25;;;;;9.32;66.40;102775.94;4975866;28;47234;-50
2021/11/19 01:54:50;;;;;;;;;31.50;26.75;;;;;9.31;66.40;102771.53;4978334;28;45442;-51
2021/11/19 01:57:44;;;;;;;;;36.50;28.25;;;;;9.31;66.45;102774.16;4981029;28;45232;-51
2021/11/19 02:00:21;;;;;;;;;36.00;29.75;;;;;9.32;66.41;102767.16;4979265;28;46358;-53
2021/11/19 02:02:49;;;;;;;;;38.00;32.50;;;;;9.31;66.52;102773.25;4979773;28;45345;-52
2021/11/19 02:05:22;;;;;;;;;37.25;33.75;;;;;9.32;66.35;102775.94;4980581;28;45348;-50
2021/11/19 02:07:59;;;;;;;;;42.00;33.00;;;;;9.33;66.30;102772.44;4979111;28;45370;-51
2021/11/19 02:10:53;;;;;;;;;43.50;31.75;;;;;9.32;66.55;102768.06;4980157;28;45500;-53
2021/11/19 02:13:30;;;;;;;;;36.25;28.75;;;;;9.32;66.67;102775.94;4980409;28;46349;-52
2021/11/19 02:16:12;;;;;;;;;40.00;35.25;;;;;9.32;66.28;102773.31;4980350;28;45308;-52
2021/11/19 02:18:46;;;;;;;;;32.50;27.00;;;;;9.33;66.34;102771.56;4980451;28;45261;-49
2021/11/19 02:21:17;;;;;;;;;39.25;32.25;;;;;9.32;66.56;102765.44;4980436;28;45336;-52
2021/11/19 02:23:47;;;;;;;;;45.75;33.25;;;;;9.35;66.40;102773.38;4979888;28;46328;-50
2021/11/19 02:26:17;;;;;;;;;41.00;32.50;;;;;9.35;66.26;102768.13;4980123;28;45508;-51
2021/11/19 02:28:45;;;;;;;;;41.00;33.25;;;;;9.35;66.24;102768.13;4980294;28;45258;-49
2021/11/19 02:31:19;;;;;;;;;35.75;28.00;;;;;9.33;66.33;102767.19;4980305;28;45426;-49
2021/11/19 02:33:47;;;;;;;;;42.00;33.00;;;;;9.34;66.45;102768.97;4979867;28;45279;-52
2021/11/19 02:36:33;;;;;;;;;43.75;36.00;;;;;9.35;66.32;102760.25;4980334;28;45454;-49
2021/11/19 02:39:06;;;;;;;;;39.25;34.25;;;;;9.36;66.31;102771.66;4980025;28;45517;-50
2021/11/19 02:41:36;;;;;;;;;35.25;29.75;;;;;9.35;66.35;102770.75;4980005;28;45210;-51
2021/11/19 02:44:07;;;;;;;;;40.75;27.50;;;;;9.37;66.57;102768.16;4975528;28;46268;-50
2021/11/19 02:46:39;;;;;;;;;42.00;33.00;;;;;9.37;66.54;102763.81;4977347;28;45250;-51
2021/11/19 02:49:06;;;;;;;;;35.75;27.25;;;;;9.39;66.36;102771.72;4978808;28;45259;-53
2021/11/19 02:51:34;;;;;;;;;43.75;36.75;;;;;9.40;66.39;102763.00;4975127;28;45493;-49
2021/11/19 02:54:02;;;;;;;;;40.00;31.25;;;;;9.37;66.52;102757.66;4969975;28;46174;-52
2021/11/19 02:56:28;;;;;;;;;36.25;31.75;;;;;9.40;66.49;102760.38;4979828;28;45314;-52
2021/11/19 02:58:57;;;;;;;;;44.75;33.75;;;;;9.40;66.65;102768.22;4980149;28;45267;-51
2021/11/19 03:01:22;;;;;;;;;31.00;26.75;;;;;9.41;66.74;102759.53;4979763;28;45245;-51
2021/11/19 03:04:03;;;;;;;;;34.25;31.25;;;;;9.40;66.47;102758.63;4979748;28;46218;-51
2021/11/19 03:06:28;;;;;;;;;36.25;30.00;;;;;9.41;66.41;102757.75;4966250;28;45429;-52
2021/11/19 03:08:53;;;;;;;;;40.00;32.00;;;;;9.39;66.49;102746.34;4979539;28;45242;-52
2021/11/19 03:11:19;;;;;;;;;39.25;32.75;;;;;9.43;66.60;102763.03;4979827;28;45226;-52
2021/11/19 03:13:44;;;;;;;;;37.50;33.25;;;;;9.43;66.32;102756.06;4975631;28;48104;-52
2021/11/19 03:16:11;;;;;;;;;33.00;28.75;;;;;9.43;66.46;102755.16;4978693;28;45631;-52
2021/11/19 03:18:37;;;;;;;;;30.50;27.25;;;;;9.42;66.28;102759.53;4977326;28;45239;-52
2021/11/19 03:21:07;;;;;;;;;30.00;25.00;;;;;9.44;66.29;102755.19;4982985;28;45187;-48
2021/11/19 03:23:35;;;;;;;;;29.75;23.50;;;;;9.46;66.61;102757.88;4982748;28;45231;-52
2021/11/19 03:26:01;;;;;;;;;29.50;23.50;;;;;9.46;66.52;102750.00;4982518;28;45262;-51
2021/11/19 03:28:27;;;;;;;;;31.25;24.75;;;;;9.46;66.35;102750.00;4982926;28;45213;-50
2021/11/19 03:31:00;;;;;;;;;29.00;26.75;;;;;9.47;66.39;102745.63;4982911;28;45282;-52
2021/11/19 03:33:28;;;;;;;;;35.50;29.75;;;;;9.47;66.42;102746.53;4982349;28;45347;-52
2021/11/19 03:35:54;;;;;;;;;24.25;22.50;;;;;9.48;66.50;102745.66;4982879;28;45386;-53
2021/11/19 03:38:22;;;;;;;;;26.75;23.00;;;;;9.50;66.17;102748.34;4982617;28;45322;-52
2021/11/19 03:40:50;;;;;;;;;27.50;23.00;;;;;9.50;66.43;102743.09;4982479;28;45309;-52
2021/11/19 03:43:22;;;;;;;;;30.50;24.75;;;;;9.48;66.24;102743.03;4981359;28;45253;-52
2021/11/19 03:45:52;;;;;;;;;28.75;24.00;;;;;9.47;66.37;102743.91;4982625;28;45353;-52
2021/11/19 03:48:19;;;;;;;;;31.25;25.50;;;;;9.47;66.47;102737.75;4982554;28;45474;-51
2021/11/19 03:50:52;;;;;;;;;29.25;26.00;;;;;9.44;66.43;102742.06;4981062;28;45469;-50
2021/11/19 03:53:19;;;;;;;;;28.75;22.75;;;;;9.41;66.62;102739.41;4981939;28;47175;-51
2021/11/19 03:55:49;;;;;;;;;27.00;25.50;;;;;9.39;66.50;102745.47;4982284;28;45435;-50
2021/11/19 03:58:22;;;;;;;;;25.75;23.50;;;;;9.38;66.36;102738.44;4982385;28;45234;-48
2021/11/19 04:00:57;;;;;;;;;25.25;22.25;;;;;9.36;66.35;102742.78;4982158;28;45309;-50
2021/11/19 04:03:23;;;;;;;;;25.50;23.00;;;;;9.35;66.58;102741.88;4980963;28;47041;-49
2021/11/19 04:05:49;;;;;;;;;26.75;21.50;;;;;9.33;66.62;102738.31;4982215;28;45242;-52
2021/11/19 04:08:16;;;;;;;;;27.75;24.75;;;;;9.29;66.73;102731.25;4982314;28;45227;-52
2021/11/19 04:10:41;;;;;;;;;15.50;15.00;;;;;9.35;66.43;102748.88;4981940;28;45512;-53
2021/11/19 04:13:08;;;;;;;;;20.00;19.00;;;;;9.35;66.37;102752.38;4982176;28;45241;-51
2021/11/19 04:15:38;;;;;;;;;21.25;16.00;;;;;9.31;66.51;102755.78;4980875;28;45326;-52
2021/11/19 04:18:04;;;;;;;;;29.25;25.00;;;;;9.32;66.33;102752.31;4982320;28;45179;-49
2021/11/19 04:20:30;;;;;;;;;30.50;22.75;;;;;9.33;66.47;102751.44;4981929;28;46268;-51
2021/11/19 04:22:56;;;;;;;;;26.75;25.25;;;;;9.35;66.35;102748.88;4980443;28;47187;-53
2021/11/19 04:25:23;;;;;;;;;23.00;21.50;;;;;9.33;66.37;102740.94;4981157;28;45404;-51
2021/11/19 04:27:50;;;;;;;;;30.25;26.25;;;;;9.34;66.35;102740.09;4982205;28;45373;-52
2021/11/19 04:30:20;;;;;;;;;22.25;22.25;;;;;9.35;66.48;102751.50;4981665;28;45532;-52
2021/11/19 04:32:45;;;;;;;;;29.25;23.25;;;;;9.33;66.33;102750.56;4980822;28;45291;-50
2021/11/19 04:35:12;;;;;;;;;34.00;30.00;;;;;9.34;66.57;102752.34;4981727;28;45244;-50
2021/11/19 04:37:37;;;;;;;;;29.50;24.50;;;;;9.35;66.42;102749.75;4981716;28;45242;-52
2021/11/19 04:40:05;;;;;;;;;34.50;28.50;;;;;9.34;66.36;102753.22;4980280;28;45189;-52
2021/11/19 04:42:30;;;;;;;;;26.50;23.25;;;;;9.33;66.39;102751.44;4981777;28;47179;-51
2021/11/19 04:44:56;;;;;;;;;30.00;28.00;;;;;9.34;66.33;102747.09;4981458;28;45344;-49
2021/11/19 04:47:21;;;;;;;;;28.00;25.75;;;;;9.32;66.48;102741.81;4977362;28;45318;-49
2021/11/19 04:49:46;;;;;;;;;33.00;28.00;;;;;9.34;66.55;102747.97;4979030;28;45235;-51
2021/11/19 04:52:14;;;;;;;;;26.00;22.50;;;;;9.35;66.15;102747.13;4981051;28;45358;-48
2021/11/19 04:54:41;;;;;;;;;31.25;27.00;;;;;9.36;66.38;102748.03;4981220;28;45167;-52
2021/11/19 04:57:07;;;;;;;;;31.50;24.50;;;;;9.35;66.21;102752.38;4981680;28;45254;-51
2021/11/19 04:59:32;;;;;;;;;28.25;25.25;;;;;9.35;66.44;102749.75;4980020;28;45282;-52
2021/11/19 05:02:02;;;;;;;;;32.00;20.25;;;;;9.37;66.23;102752.41;4981394;28;45611;-51
2021/11/19 05:04:28;;;;;;;;;30.75;24.00;;;;;9.37;66.37;102750.69;4981377;28;45476;-53
2021/11/19 05:06:54;;;;;;;;;33.00;28.75;;;;;9.36;66.44;102748.91;4981220;28;45460;-53
2021/11/19 05:09:20;;;;;;;;;28.75;24.75;;;;;9.38;66.29;102752.47;4981074;28;45222;-50
2021/11/19 05:12:06;;;;;;;;;31.75;27.00;;;;;9.39;66.16;102746.34;4981220;28;45261;-52
2021/11/19 05:14:33;;;;;;;;;31.25;25.25;;;;;9.37;66.39;102741.91;4979933;28;46082;-51
2021/11/19 05:17:00;;;;;;;;;24.25;23.00;;;;;9.34;66.17;102747.09;4981209;28;45348;-53
2021/11/19 05:19:25;;;;;;;;;29.75;23.50;;;;;9.34;66.23;102742.72;4981085;28;45487;-49
2021/11/19 05:21:51;;;;;;;;;27.00;23.00;;;;;9.35;66.20;102738.38;4980887;28;45470;-52
2021/11/19 05:24:17;;;;;;;;;32.50;24.00;;;;;9.32;66.07;102733.94;4980946;28;45313;-48
2021/11/19 05:26:45;;;;;;;;;28.00;23.75;;;;;9.34;66.53;102736.59;4981131;28;45241;-52
2021/11/19 05:29:11;;;;;;;;;26.00;23.50;;;;;9.33;66.34;102733.06;4981201;28;45479;-49
2021/11/19 05:31:36;;;;;;;;;24.75;23.25;;;;;9.33;66.31;102732.19;4947206;28;48492;-52
2021/11/19 05:34:03;;;;;;;;;21.75;20.25;;;;;9.34;66.19;102728.72;4980888;28;45262;-48
2021/11/19 05:36:29;;;;;;;;;26.50;23.50;;;;;9.33;66.19;102734.81;4980506;28;45483;-51
2021/11/19 05:38:55;;;;;;;;;24.50;23.25;;;;;9.33;66.27;102729.56;4980275;28;45459;-51
2021/11/19 05:41:23;;;;;;;;;25.75;24.00;;;;;9.31;66.27;102734.78;4980669;28;46292;-51
2021/11/19 05:43:50;;;;;;;;;23.50;22.00;;;;;9.33;66.07;102738.31;4980976;28;45155;-51
2021/11/19 05:46:19;;;;;;;;;23.75;21.00;;;;;9.35;66.28;102738.38;4979781;28;45243;-52
2021/11/19 05:48:46;;;;;;;;;26.50;23.50;;;;;9.36;66.23;102741.03;4980702;28;45386;-52
2021/11/19 05:51:13;;;;;;;;;27.50;25.50;;;;;9.34;66.30;102740.09;4980351;28;45436;-49
2021/11/19 05:53:39;;;;;;;;;27.75;23.75;;;;;9.38;66.24;102748.94;4980368;28;45238;-49
2021/11/19 05:56:05;;;;;;;;;23.50;19.25;;;;;9.38;66.25;102749.84;4979521;28;45271;-51
2021/11/19 05:58:32;;;;;;;;;24.50;22.75;;;;;9.39;66.00;102751.59;4980756;28;45575;-51
2021/11/19 06:01:01;;;;;;;;;22.50;22.00;;;;;9.40;66.25;102747.25;4980087;28;46260;-52
2021/11/19 06:03:27;;;;;;;;;22.50;21.75;;;;;9.40;66.35;102747.25;4980988;28;45279;-52
2021/11/19 06:05:52;;;;;;;;;24.50;22.25;;;;;9.40;66.35;102744.63;4980631;28;45478;-50
2021/11/19 06:08:19;;;;;;;;;27.50;24.25;;;;;9.40;66.17;102753.38;4979080;28;45319;-49
2021/11/19 06:10:52;;;;;;;;;21.50;21.00;;;;;9.41;66.27;102759.53;4980223;28;45351;-52
2021/11/19 06:13:30;;;;;;;;;23.75;21.75;;;;;9.41;66.42;102756.91;4980235;28;45402;-53
2021/11/19 06:16:01;;;;;;;;;26.00;23.00;;;;;9.39;66.33;102751.59;4980396;28;45275;-53
2021/11/19 06:18:30;;;;;;;;;26.25;21.25;;;;;9.40;66.26;102748.13;4980345;28;45324;-49
2021/11/19 06:21:00;;;;;;;;;25.25;21.50;;;;;9.40;66.28;102747.25;4979999;28;46459;-51
2021/11/19 06:23:38;;;;;;;;;23.00;20.50;;;;;9.42;66.24;102745.53;4979965;28;45363;-52
2021/11/19 06:26:07;;;;;;;;;30.00;22.25;;;;;9.41;66.05;102744.66;4980135;28;45329;-53
2021/11/19 06:28:36;;;;;;;;;30.50;23.00;;;;;9.38;66.33;102744.59;4980293;28;45205;-48
2021/11/19 06:31:02;;;;;;;;;24.75;20.25;;;;;9.42;66.16;102754.28;4980067;28;45640;-51
2021/11/19 06:33:28;;;;;;;;;27.75;22.00;;;;;9.43;66.17;102752.53;4978852;28;45382;-50
2021/11/19 06:35:54;;;;;;;;;22.25;21.25;;;;;9.41;66.24;102747.28;4981861;28;45249;-52
2021/11/19 06:38:20;;;;;;;;;23.50;20.00;;;;;9.45;66.22;102750.84;4983556;28;45412;-43
2021/11/19 06:40:46;;;;;;;;;32.00;23.25;;;;;9.44;66.03;102749.94;4979046;28;45337;-40
2021/11/19 06:43:12;;;;;;;;;23.50;19.25;;;;;9.47;65.85;102753.50;4979213;28;45170;-39
2021/11/19 06:45:37;;;;;;;;;23.00;18.75;;;;;9.48;66.04;102756.16;4980033;28;45502;-40
2021/11/19 06:48:06;;;;;;;;;36.25;29.25;;;;;9.47;66.17;102749.16;4977333;28;45729;-47
2021/11/19 06:50:34;;;;;;;;;23.00;20.75;;;;;9.49;66.31;102759.69;4981538;28;45460;-47
2021/11/19 06:53:00;;;;;;;;;24.25;21.50;;;;;9.50;66.32;102756.22;4981668;28;45385;-50
2021/11/19 06:55:27;;;;;;;;;42.75;32.25;;;;;9.52;66.17;102762.38;4982647;28;45467;-45
2021/11/19 06:57:53;;;;;;;;;28.50;25.25;;;;;9.54;66.08;102752.78;4981833;28;45328;-51
2021/11/19 07:00:24;;;;;;;;;23.50;22.25;;;;;9.56;66.19;102766.84;4981666;28;45471;-47
2021/11/19 07:02:50;;;;;;;;;22.50;20.25;;;;;9.57;66.10;102758.09;4983032;28;45250;-46
2021/11/19 07:05:17;;;;;;;;;34.75;31.00;;;;;9.57;65.97;102758.09;4983076;28;45377;-45
2021/11/19 07:07:43;;;;;;;;;28.50;26.25;;;;;9.60;66.27;102763.44;4981190;28;45332;-47
2021/11/19 07:10:09;;;;;;;;;27.50;23.25;;;;;9.63;65.95;102775.75;4978106;28;45496;-48
2021/11/19 07:12:35;;;;;;;;;23.00;23.00;;;;;9.63;66.00;102779.25;4981268;28;45384;-46
2021/11/19 07:15:02;;;;;;;;;29.25;24.75;;;;;9.63;66.23;102781.88;4981294;28;45325;-45
2021/11/19 07:17:27;;;;;;;;;26.25;22.75;;;;;9.66;65.98;102778.41;4980534;28;45503;-46
2021/11/19 07:19:53;;;;;;;;;26.75;24.50;;;;;9.66;66.32;102781.03;4997448;28;46956;-46
2021/11/19 07:22:18;;;;;;;;;24.75;24.50;;;;;9.68;66.26;102788.09;4981143;28;45414;-45
2021/11/19 07:24:44;;;;;;;;;31.75;27.25;;;;;9.68;66.28;102790.72;4985826;28;45933;-49
2021/11/19 07:27:11;;;;;;;;;26.25;21.75;;;;;9.70;66.10;102794.28;4982511;28;45569;-50
2021/11/19 07:29:38;;;;;;;;;37.25;32.75;;;;;9.73;66.18;102801.34;4982220;28;46304;-45
2021/11/19 07:32:04;;;;;;;;;23.25;23.00;;;;;9.74;66.02;102796.13;4980754;28;45431;-46
2021/11/19 07:34:29;;;;;;;;;36.00;25.25;;;;;9.77;65.96;102800.53;4982191;28;45384;-48
2021/11/19 07:36:55;;;;;;;;;33.50;28.75;;;;;9.75;66.43;102797.03;4988505;28;45408;-48
2021/11/19 07:39:20;;;;;;;;;33.50;28.25;;;;;9.79;66.15;102804.09;4977329;28;46311;-48
2021/11/19 07:41:46;;;;;;;;;32.25;28.00;;;;;9.83;65.97;102810.31;4982303;28;45341;-47
2021/11/19 07:44:11;;;;;;;;;34.50;30.00;;;;;9.85;66.25;102803.34;4982611;28;45309;-45
2021/11/19 07:46:37;;;;;;;;;27.00;23.75;;;;;9.89;66.16;102810.44;4982162;28;45571;-44
2021/11/19 07:49:04;;;;;;;;;26.75;23.50;;;;;9.90;66.11;102810.47;4976172;28;46111;-46
2021/11/19 07:51:36;;;;;;;;;29.50;29.00;;;;;9.85;66.19;102796.38;4981732;28;45253;-49
2021/11/19 07:54:03;;;;;;;;;29.50;25.50;;;;;9.94;66.18;102811.44;4981722;28;45322;-48
2021/11/19 07:56:31;;;;;;;;;24.50;21.50;;;;;9.98;66.20;102810.63;4982319;28;45350;-48
2021/11/19 07:59:12;;;;;;;;;29.75;27.50;;;;;9.99;66.13;102817.66;4981881;28;45620;-50
2021/11/19 08:01:39;;;;;;;;;27.25;23.75;;;;;10.01;66.11;102813.34;4980994;28;46476;-48
2021/11/19 08:04:05;;;;;;;;;29.75;25.00;;;;;10.02;66.12;102815.09;4981945;28;45250;-49
2021/11/19 08:06:33;;;;;;;;;36.25;29.50;;;;;10.05;65.96;102820.44;4981792;28;45246;-47
2021/11/19 08:08:59;;;;;;;;;45.25;34.00;;;;;10.06;66.13;102814.31;4981804;28;47037;-47
2021/11/19 08:11:25;;;;;;;;;28.50;22.75;;;;;10.07;66.04;102810.84;4981660;28;45352;-47
2021/11/19 08:13:51;;;;;;;;;32.75;28.75;;;;;10.13;66.15;102820.59;4982139;28;45440;-46
2021/11/19 08:16:17;;;;;;;;;34.75;28.25;;;;;10.13;66.07;102809.19;4981489;28;45458;-47
2021/11/19 08:18:57;;;;;;;;;27.00;24.50;;;;;10.16;66.00;102822.38;4977125;28;47196;-49
2021/11/19 08:21:23;;;;;;;;;31.00;29.00;;;;;10.18;65.94;102825.94;4981649;28;45489;-47
2021/11/19 08:23:52;;;;;;;;;29.75;26.50;;;;;10.22;66.05;102830.41;4980290;28;45425;-51
2021/11/19 08:26:40;;;;;;;;;27.75;26.00;;;;;10.24;65.97;102828.69;4980771;28;45464;-49
2021/11/19 08:29:10;;;;;;;;;33.50;30.75;;;;;10.24;66.19;102828.69;4981386;28;45241;-49
2021/11/19 08:31:36;;;;;;;;;28.00;24.75;;;;;10.22;65.94;102820.75;4978594;28;45472;-49
2021/11/19 08:34:02;;;;;;;;;32.25;25.00;;;;;10.28;66.09;102819.16;4980013;28;45356;-50
2021/11/19 08:36:30;;;;;;;;;35.00;29.50;;;;;10.29;66.18;102819.16;4980368;28;45396;-50
2021/11/19 08:38:56;;;;;;;;;29.75;28.50;;;;;10.30;66.05;102820.94;4980198;28;45370;-46
2021/11/19 08:41:22;;;;;;;;;32.75;29.50;;;;;10.32;65.99;102818.34;4979373;28;45416;-46
2021/11/19 08:43:53;;;;;;;;;32.75;27.25;;;;;10.36;65.79;102818.47;4980439;28;45265;-48
2021/11/19 08:46:27;;;;;;;;;32.25;28.00;;;;;10.38;65.97;102819.38;4978972;28;45444;-50
2021/11/19 08:48:52;;;;;;;;;32.50;28.00;;;;;10.40;66.11;102816.75;4981192;28;46805;-50
2021/11/19 08:51:22;;;;;;;;;34.00;30.00;;;;;10.42;65.95;102814.19;4980677;28;45403;-48
2021/11/19 08:53:52;;;;;;;;;30.75;27.00;;;;;10.43;65.96;102818.56;4981382;28;45299;-47
2021/11/19 08:56:18;;;;;;;;;33.50;32.00;;;;;10.45;66.15;102822.13;4981149;28;45323;-47
2021/11/19 08:58:44;;;;;;;;;36.75;31.00;;;;;10.46;65.91;102816.00;4981024;28;46124;-49
2021/11/19 09:01:12;;;;;;;;;33.75;31.50;;;;;10.49;66.01;102816.06;4979641;28;45311;-45
2021/11/19 09:03:38;;;;;;;;;24.50;21.25;;;;;10.52;65.89;102821.41;4981345;28;46183;-49
2021/11/19 09:06:07;;;;;;;;;30.50;28.25;;;;;10.55;66.00;102826.69;4980835;28;45503;-48
2021/11/19 09:08:33;;;;;;;;;35.50;29.75;;;;;10.57;65.91;102819.75;4980859;28;47146;-46
2021/11/19 09:11:00;;;;;;;;;31.25;28.50;;;;;10.57;65.80;102817.09;4980544;28;45435;-49
2021/11/19 09:13:27;;;;;;;;;28.75;25.25;;;;;10.60;65.81;102825.03;4981151;28;45380;-50
2021/11/19 09:15:57;;;;;;;;;30.75;28.75;;;;;10.63;66.07;102818.94;4980169;28;45412;-50
2021/11/19 09:18:31;;;;;;;;;25.75;24.00;;;;;10.66;65.95;102825.16;4979881;28;46214;-48
2021/11/19 09:21:25;;;;;;;;;30.75;25.25;;;;;10.69;66.07;102824.31;4980497;28;45464;-48
2021/11/19 09:23:59;;;;;;;;;28.50;27.50;;;;;10.68;66.17;102820.81;4978853;28;45419;-49
2021/11/19 09:26:36;;;;;;;;;29.75;25.25;;;;;10.72;66.03;102829.66;4980842;28;45543;-48
2021/11/19 09:29:07;;;;;;;;;29.50;28.75;;;;;10.73;66.07;102834.94;4979499;28;46370;-48
2021/11/19 09:31:32;;;;;;;;;39.00;33.75;;;;;10.77;66.03;102834.97;4979398;28;45452;-48
2021/11/19 09:33:58;;;;;;;;;31.75;28.75;;;;;10.78;66.08;102836.75;4980775;28;45261;-46
2021/11/19 09:36:23;;;;;;;;;35.50;32.00;;;;;10.81;66.14;102836.84;4980649;28;45400;-48
2021/11/19 09:38:49;;;;;;;;;30.00;28.75;;;;;10.84;65.91;102839.50;4980492;28;46174;-49
2021/11/19 09:41:20;;;;;;;;;30.75;27.50;;;;;10.88;66.06;102846.63;4979836;28;45389;-49
2021/11/19 09:44:21;;;;;;;;;37.75;33.25;;;;;10.90;66.09;102844.88;4968313;28;45347;-46
2021/11/19 09:47:08;;;;;;;;;38.25;30.00;;;;;10.92;65.85;102839.63;4958483;28;45507;-46
2021/11/19 09:49:33;;;;;;;;;35.25;32.00;;;;;10.95;66.18;102843.22;4977738;28;45432;-44
2021/11/19 09:52:39;;;;;;;;;33.25;30.25;;;;;10.96;65.87;102845.00;4978933;28;45191;-46
2021/11/19 09:55:42;;;;;;;;;38.50;34.00;;;;;11.00;66.00;102841.53;4968204;28;45296;-45
2021/11/19 09:58:29;;;;;;;;;37.75;31.25;;;;;11.04;66.02;102832.88;4979493;28;45315;-44
2021/11/19 10:01:32;;;;;;;;;32.75;31.00;;;;;11.09;65.85;102837.31;4978250;28;46153;-47
2021/11/19 10:04:19;;;;;;;;;31.75;30.25;;;;;11.13;65.98;102837.41;4979812;28;45417;-46
2021/11/19 10:07:00;;;;;;;;;39.75;32.00;;;;;11.15;66.04;102827.78;4980172;28;45436;-46
2021/11/19 10:09:40;;;;;;;;;41.50;34.00;;;;;11.19;66.11;102826.97;4975363;28;45453;-46
2021/11/19 10:12:18;;;;;;;;;44.50;35.75;;;;;11.24;65.95;102819.13;4975929;28;46177;-47
2021/11/19 10:15:07;;;;;;;;;39.75;34.00;;;;;11.25;65.93;102815.66;4979920;28;45420;-49
2021/11/19 10:17:47;;;;;;;;;35.50;33.50;;;;;11.32;65.94;102822.78;4978716;28;45333;-49
2021/11/19 10:20:19;;;;;;;;;32.50;29.50;;;;;11.34;65.81;102818.41;4979988;28;45166;-47
2021/11/19 10:22:53;;;;;;;;;38.50;33.75;;;;;11.38;65.71;102822.91;4980819;28;45327;-47
2021/11/19 10:25:37;;;;;;;;;34.50;32.00;;;;;11.44;65.90;102824.72;4985621;28;45434;-47
2021/11/19 10:28:08;;;;;;;;;37.75;33.50;;;;;11.47;65.68;102818.63;4984415;28;45250;-45
2021/11/19 10:30:43;;;;;;;;;33.50;29.00;;;;;11.49;65.76;102812.50;4981902;28;45422;-46
2021/11/19 10:33:36;;;;;;;;;36.50;32.00;;;;;11.55;65.84;102814.38;4979194;28;47086;-48
2021/11/19 10:36:07;;;;;;;;;35.00;31.75;;;;;11.59;65.84;102818.81;4977710;28;45282;-46
2021/11/19 10:38:54;;;;;;;;;35.00;31.00;;;;;11.65;65.82;102812.75;4984361;28;45396;-49
2021/11/19 10:41:57;;;;;;;;;35.00;32.00;;;;;11.68;65.87;102821.59;4985435;28;45428;-46
2021/11/19 10:44:49;;;;;;;;;34.50;31.00;;;;;11.73;65.69;102819.00;4986439;28;46194;-48
2021/11/19 10:47:42;;;;;;;;;40.75;32.25;;;;;11.78;65.67;102824.34;4976556;28;45361;-46
2021/11/19 10:50:29;;;;;;;;;37.50;29.75;;;;;11.81;65.68;102814.75;4985943;28;45281;-44
2021/11/19 10:53:08;;;;;;;;;39.75;35.25;;;;;11.86;65.92;102814.78;4983982;28;45460;-49
2021/11/19 10:56:08;;;;;;;;;36.75;33.25;;;;;11.90;65.56;102815.72;4985239;28;45417;-50
2021/11/19 10:58:50;;;;;;;;;40.00;34.50;;;;;11.92;65.79;102809.59;4976605;28;45240;-50
2021/11/19 11:01:46;;;;;;;;;39.00;30.50;;;;;11.96;65.75;102814.09;4984897;28;45209;-45
2021/11/19 11:04:20;;;;;;;;;39.25;34.75;;;;;11.97;65.89;102807.94;4984091;28;45171;-45
2021/11/19 11:06:53;;;;;;;;;36.50;31.25;;;;;12.02;65.57;102806.28;4985849;28;46893;-45
2021/11/19 11:09:25;;;;;;;;;40.75;33.00;;;;;12.06;65.70;102799.25;4984944;28;45437;-48
2021/11/19 11:12:07;;;;;;;;;32.50;31.00;;;;;12.10;65.54;102805.47;4986259;28;45428;-49
2021/11/19 11:14:36;;;;;;;;;33.50;31.25;;;;;12.11;65.62;102801.97;4979908;28;45338;-49
2021/11/19 11:17:21;;;;;;;;;38.50;31.75;;;;;12.16;65.57;102798.53;4983902;28;45512;-46
2021/11/19 11:19:47;;;;;;;;;37.25;31.25;;;;;12.19;65.61;102803.81;4974867;28;45522;-46
2021/11/19 11:22:18;;;;;;;;;40.50;33.00;;;;;12.22;65.57;102794.19;4984612;28;45460;-45
2021/11/19 11:24:58;;;;;;;;;33.75;31.50;;;;;12.26;65.54;102796.88;4985471;28;45471;-48
2021/11/19 11:27:35;;;;;;;;;38.00;32.75;;;;;12.29;65.27;102790.75;4983668;28;46167;-49
2021/11/19 11:30:08;;;;;;;;;47.25;36.75;;;;;12.31;65.68;102791.66;4985607;28;45493;-49